Time;durP1;ratioP1;P1;durP2;ratioP2;P2;SDS_P1;SDS_P2;PMS_P1;PMS_P2;Temp;Humidity;BMP_temperature;BMP_pressure;BME280_temperature;BME280_humidity;BME280_pressure;Samples;Min_cycle;Max_cycle;Signal;HPM_P1;HPM_P2
2022/05/02 00:00:07;;;;;;;;;;;14.00;81.20;14.20;99478.00;;;;345905;28;83259;-84
2022/05/02 00:00:20;;;;;;;;;;;14.00;81.20;14.10;99475.00;;;;344234;28;89470;-84
2022/05/02 00:00:33;;;;;;;;;;;14.00;81.50;14.10;99476.00;;;;343155;28;83499;-84
2022/05/02 00:00:45;;;;;;;;;;;13.90;81.20;14.20;99470.00;;;;341448;28;92608;-84
2022/05/02 00:00:57;;;;;;;;;;;13.90;81.20;14.30;99468.00;;;;341977;28;83276;-84
2022/05/02 00:01:09;;;;;;;;;;;14.00;81.40;14.20;99471.00;;;;342916;28;87835;-84
2022/05/02 00:01:21;;;;;;;;;;;13.90;81.50;14.20;99472.00;;;;343351;28;83273;-84
2022/05/02 00:01:32;;;;;;;;;;;14.00;81.30;14.10;99470.00;;;;344067;28;87706;-84
2022/05/02 00:01:44;;;;;;;;;;;14.00;81.20;14.10;99470.00;;;;344780;28;83322;-84
2022/05/02 00:01:56;;;;;;;;;;;13.90;81.10;14.10;99464.00;;;;343839;28;90627;-83
2022/05/02 00:02:08;;;;;;;;;;;13.90;81.30;14.10;99472.00;;;;343221;28;83443;-84
2022/05/02 00:02:21;;;;;;;;;;;13.90;81.40;14.10;99474.00;;;;342628;28;89051;-84
2022/05/02 00:02:33;;;;;;;;;;;13.90;81.40;14.20;99477.00;;;;343437;28;82695;-83
2022/05/02 00:02:46;;;;;;;;;;;13.90;81.10;14.20;99475.00;;;;344198;28;89714;-85
2022/05/02 00:02:58;;;;;;;;;;;13.90;81.40;14.10;99471.00;;;;344538;28;83346;-84
2022/05/02 00:03:11;;;;;;;;;;;13.90;81.40;14.10;99475.00;;;;342916;28;89169;-84
2022/05/02 00:03:23;;;;;;;;;;;13.90;81.30;14.20;99480.00;;;;344773;28;83312;-84
2022/05/02 00:03:35;;;;;;;;;;;13.90;81.20;14.10;99478.00;;;;343767;28;89247;-84
2022/05/02 00:03:47;;;;;;;;;;;13.90;81.50;14.10;99475.00;;;;345932;28;83218;-84
2022/05/02 00:03:59;;;;;;;;;;;13.90;81.70;14.10;99475.00;;;;344576;28;89260;-84
2022/05/02 00:04:11;;;;;;;;;;;13.90;81.50;14.00;99477.00;;;;344594;28;82494;-84
2022/05/02 00:04:23;;;;;;;;;;;13.90;81.70;13.90;99478.00;;;;344940;28;90828;-84
2022/05/02 00:04:35;;;;;;;;;;;13.90;81.70;13.90;99474.00;;;;346074;28;82437;-84
2022/05/02 00:04:47;;;;;;;;;;;13.80;81.80;14.00;99475.00;;;;344192;28;90078;-83
2022/05/02 00:04:59;;;;;;;;;;;13.80;81.80;14.00;99482.00;;;;347419;27;83472;-83
2022/05/02 00:05:11;;;;;;;;;;;13.80;82.00;14.00;99472.00;;;;345372;28;91334;-83
2022/05/02 00:05:23;;;;;;;;;;;13.80;81.90;14.10;99473.00;;;;345047;28;83357;-84
2022/05/02 00:05:35;;;;;;;;;;;13.80;81.80;14.00;99473.00;;;;344550;28;88024;-84
2022/05/02 00:05:47;;;;;;;;;;;13.80;81.80;14.10;99479.00;;;;344609;28;83290;-84
2022/05/02 00:05:58;;;;;;;;;;;13.80;81.80;14.00;99477.00;;;;342930;28;89402;-84
2022/05/02 00:06:10;;;;;;;;;;;13.80;81.80;14.00;99475.00;;;;344564;28;83221;-85
2022/05/02 00:06:23;;;;;;;;;;;13.80;81.60;14.10;99479.00;;;;345462;28;90265;-84
2022/05/02 00:06:35;;;;;;;;;;;13.80;81.70;14.00;99473.00;;;;344667;28;82454;-84
2022/05/02 00:06:47;;;;;;;;;;;13.80;82.10;14.00;99475.00;;;;342535;28;88724;-82
2022/05/02 00:06:58;;;;;;;;;;;13.80;82.10;13.90;99472.00;;;;346010;28;82523;-84
2022/05/02 00:07:10;;;;;;;;;;;13.70;82.10;13.80;99473.00;;;;345999;28;89070;-84
2022/05/02 00:07:22;;;;;;;;;;;13.70;82.10;13.80;99473.00;;;;344456;28;82515;-84
2022/05/02 00:07:34;;;;;;;;;;;13.70;82.10;13.90;99484.00;;;;343867;28;91608;-84
2022/05/02 00:07:46;;;;;;;;;;;13.70;82.00;13.80;99468.00;;;;343115;28;82553;-84
2022/05/02 00:07:58;;;;;;;;;;;13.70;82.20;13.80;99471.00;;;;342611;28;88974;-84
2022/05/02 00:08:09;;;;;;;;;;;13.60;82.20;13.80;99468.00;;;;343291;28;82344;-84
2022/05/02 00:08:21;;;;;;;;;;;13.70;82.30;13.90;99477.00;;;;344199;28;89553;-84
2022/05/02 00:08:33;;;;;;;;;;;13.60;82.20;13.90;99477.00;;;;341910;28;83291;-84
2022/05/02 00:08:45;;;;;;;;;;;13.60;81.90;14.00;99473.00;;;;341469;28;90098;-84
2022/05/02 00:08:57;;;;;;;;;;;13.60;81.90;14.00;99476.00;;;;344693;28;82436;-83
2022/05/02 00:09:08;;;;;;;;;;;13.60;82.10;14.00;99474.00;;;;344049;28;91657;-84
2022/05/02 00:09:20;;;;;;;;;;;13.60;82.30;13.90;99473.00;;;;343386;28;82264;-84
2022/05/02 00:09:32;;;;;;;;;;;13.60;82.30;13.90;99481.00;;;;342801;28;88035;-84
2022/05/02 00:09:44;;;;;;;;;;;13.60;82.40;13.90;99473.00;;;;343991;28;82527;-84
2022/05/02 00:09:56;;;;;;;;;;;13.70;82.20;14.00;99477.00;;;;342303;28;91726;-84
2022/05/02 00:10:08;;;;;;;;;;;13.60;82.10;14.00;99464.00;;;;341673;28;83421;-83
2022/05/02 00:10:20;;;;;;;;;;;13.60;82.30;14.00;99481.00;;;;342692;28;89310;-84
2022/05/02 00:10:32;;;;;;;;;;;13.60;82.10;13.90;99479.00;;;;343303;28;83184;-84
2022/05/02 00:10:44;;;;;;;;;;;13.70;82.40;13.90;99475.00;;;;345338;28;90080;-83
2022/05/02 00:10:56;;;;;;;;;;;13.60;82.30;14.00;99478.00;;;;344602;28;83261;-84
2022/05/02 00:11:08;;;;;;;;;;;13.60;82.20;14.00;99481.00;;;;344305;28;89080;-84
2022/05/02 00:11:19;;;;;;;;;;;13.60;82.20;13.90;99474.00;;;;344460;28;83302;-84
2022/05/02 00:11:31;;;;;;;;;;;13.60;82.20;13.90;99476.00;;;;344239;28;87604;-82
2022/05/02 00:11:43;;;;;;;;;;;13.60;82.20;14.00;99476.00;;;;342017;28;84571;-84
2022/05/02 00:11:54;;;;;;;;;;;13.60;82.10;13.80;99473.00;;;;342946;28;90047;-84
2022/05/02 00:12:06;;;;;;;;;;;13.60;82.20;13.80;99469.00;;;;343335;28;83185;-84
2022/05/02 00:12:18;;;;;;;;;;;13.60;82.30;13.80;99468.00;;;;342953;28;88932;-84
2022/05/02 00:12:30;;;;;;;;;;;13.60;82.10;13.90;99481.00;;;;343359;28;83370;-83
2022/05/02 00:12:42;;;;;;;;;;;13.60;81.90;13.90;99472.00;;;;342826;28;89368;-84
2022/05/02 00:12:54;;;;;;;;;;;13.60;82.00;13.90;99474.00;;;;344646;28;83370;-84
2022/05/02 00:13:07;;;;;;;;;;;13.60;82.10;13.80;99471.00;;;;342949;28;89648;-84
2022/05/02 00:13:18;;;;;;;;;;;13.60;82.30;13.80;99474.00;;;;344654;28;82599;-84
2022/05/02 00:13:31;;;;;;;;;;;13.60;82.20;13.80;99473.00;;;;342740;28;90879;-84
2022/05/02 00:13:43;;;;;;;;;;;13.60;82.40;13.80;99479.00;;;;343195;28;83284;-84
2022/05/02 00:13:55;;;;;;;;;;;13.60;82.30;13.90;99478.00;;;;345675;28;89438;-84
2022/05/02 00:14:07;;;;;;;;;;;13.60;82.20;14.00;99479.00;;;;344424;28;82479;-83
2022/05/02 00:14:19;;;;;;;;;;;13.60;82.20;14.00;99477.00;;;;344082;28;88886;-84
2022/05/02 00:14:30;;;;;;;;;;;13.60;82.20;13.90;99464.00;;;;343712;28;83327;-84
2022/05/02 00:14:42;;;;;;;;;;;13.60;82.30;13.90;99472.00;;;;342689;28;91160;-84
2022/05/02 00:14:54;;;;;;;;;;;13.60;82.40;14.00;99475.00;;;;344574;28;83419;-84
2022/05/02 00:15:07;;;;;;;;;;;13.60;82.20;13.80;99475.00;;;;342907;28;87959;-84
2022/05/02 00:15:19;;;;;;;;;;;13.60;82.50;13.80;99474.00;;;;346148;28;83201;-84
2022/05/02 00:15:31;;;;;;;;;;;13.60;82.50;13.90;99472.00;;;;344225;28;91650;-84
2022/05/02 00:15:43;;;;;;;;;;;13.60;82.20;13.80;99473.00;;;;344611;28;83561;-84
2022/05/02 00:15:55;;;;;;;;;;;13.60;82.20;13.80;99468.00;;;;342717;28;89712;-83
2022/05/02 00:16:07;;;;;;;;;;;13.60;82.40;13.80;99472.00;;;;344997;28;83094;-83
2022/05/02 00:16:19;;;;;;;;;;;13.60;82.40;13.80;99483.00;;;;342950;28;90894;-84
2022/05/02 00:16:31;;;;;;;;;;;13.60;82.20;13.70;99479.00;;;;344741;28;82653;-84
2022/05/02 00:16:43;;;;;;;;;;;13.50;82.40;13.70;99476.00;;;;344100;28;92668;-84
2022/05/02 00:16:55;;;;;;;;;;;13.50;82.40;13.70;99482.00;;;;344849;28;82362;-84
2022/05/02 00:17:07;;;;;;;;;;;13.50;82.50;13.70;99479.00;;;;343140;28;88517;-84
2022/05/02 00:17:18;;;;;;;;;;;13.50;82.50;13.80;99476.00;;;;340764;28;83551;-83
2022/05/02 00:18:01;;;;;;;;;;;13.50;82.70;13.90;99489.00;;;;343425;28;82474;-84
2022/05/02 00:18:12;;;;;;;;;;;13.50;82.40;13.90;99474.00;;;;344147;28;91644;-84
2022/05/02 00:18:24;;;;;;;;;;;13.50;82.60;13.80;99478.00;;;;344967;28;83225;-84
2022/05/02 00:18:36;;;;;;;;;;;13.50;82.60;13.80;99479.00;;;;343119;28;89012;-84
2022/05/02 00:18:48;;;;;;;;;;;13.50;82.50;13.70;99481.00;;;;343504;28;83319;-83
2022/05/02 00:19:00;;;;;;;;;;;13.50;82.70;13.80;99481.00;;;;345502;28;92216;-84
2022/05/02 00:19:12;;;;;;;;;;;13.50;82.40;13.90;99476.00;;;;345292;28;83530;-84
2022/05/02 00:19:24;;;;;;;;;;;13.50;82.40;13.90;99481.00;;;;342957;28;88528;-84
2022/05/02 00:19:35;;;;;;;;;;;13.50;82.50;13.90;99476.00;;;;343423;28;83292;-84
2022/05/02 00:19:47;;;;;;;;;;;13.50;82.50;13.90;99485.00;;;;344161;28;91243;-84
2022/05/02 00:19:59;;;;;;;;;;;13.50;82.40;13.90;99477.00;;;;343492;28;83249;-84
2022/05/02 00:20:11;;;;;;;;;;;13.50;82.30;13.80;99474.00;;;;342695;28;88491;-84
2022/05/02 00:20:23;;;;;;;;;;;13.50;82.60;13.80;99477.00;;;;344732;28;82603;-84
2022/05/02 00:20:36;;;;;;;;;;;13.50;82.50;13.80;99478.00;;;;344464;28;91427;-84
2022/05/02 00:20:48;;;;;;;;;;;13.50;82.50;13.90;99476.00;;;;345905;28;82489;-84
2022/05/02 00:21:00;;;;;;;;;;;13.50;82.30;13.90;99475.00;;;;342888;28;88477;-84
2022/05/02 00:21:11;;;;;;;;;;;13.50;82.50;13.90;99479.00;;;;344507;28;83501;-84
2022/05/02 00:21:23;;;;;;;;;;;13.50;82.40;13.80;99475.00;;;;344431;28;89367;-84
2022/05/02 00:21:35;;;;;;;;;;;13.50;82.40;13.80;99474.00;;;;344825;28;82313;-83
2022/05/02 00:21:47;;;;;;;;;;;13.50;82.40;13.80;99476.00;;;;343047;28;88043;-84
2022/05/02 00:21:59;;;;;;;;;;;13.50;82.40;13.90;99476.00;;;;343990;28;83486;-84
2022/05/02 00:22:10;;;;;;;;;;;13.50;82.30;13.90;99481.00;;;;343009;28;89503;-83
2022/05/02 00:22:22;;;;;;;;;;;13.50;82.50;13.90;99484.00;;;;342158;28;82312;-84
2022/05/02 00:22:34;;;;;;;;;;;13.50;82.50;14.00;99482.00;;;;344344;28;89092;-84
2022/05/02 00:22:46;;;;;;;;;;;13.50;82.30;13.90;99483.00;;;;346286;28;83310;-84
2022/05/02 00:22:59;;;;;;;;;;;13.50;82.30;13.80;99475.00;;;;344180;28;89763;-84
2022/05/02 00:23:11;;;;;;;;;;;13.50;82.30;13.80;99469.00;;;;343923;28;83515;-84
2022/05/02 00:23:22;;;;;;;;;;;13.50;82.40;13.80;99477.00;;;;341740;28;89405;-84
2022/05/02 00:23:34;;;;;;;;;;;13.50;82.20;13.70;99472.00;;;;344810;28;82490;-84
2022/05/02 00:23:46;;;;;;;;;;;13.50;82.40;13.80;99479.00;;;;344269;28;89511;-83
2022/05/02 00:23:58;;;;;;;;;;;13.50;83.00;13.80;99473.00;;;;344893;28;83181;-84
2022/05/02 00:24:10;;;;;;;;;;;13.50;82.20;13.80;99479.00;;;;344267;28;91249;-84
2022/05/02 00:24:21;;;;;;;;;;;13.50;82.20;13.90;99479.00;;;;341860;28;83423;-84
2022/05/02 00:24:33;;;;;;;;;;;13.50;82.10;13.90;99472.00;;;;342975;28;91743;-83
2022/05/02 00:24:45;;;;;;;;;;;13.50;82.10;13.80;99477.00;;;;346216;28;83329;-83
2022/05/02 00:24:58;;;;;;;;;;;13.50;82.40;13.80;99476.00;;;;342924;28;89750;-83
2022/05/02 00:25:15;;;;;;;;;;;13.50;82.40;13.70;99473.00;;;;343603;28;82477;-84
2022/05/02 00:25:27;;;;;;;;;;;13.50;82.40;13.70;99481.00;;;;344177;28;91766;-83
2022/05/02 00:25:39;;;;;;;;;;;13.50;82.50;13.80;99474.00;;;;343364;28;83667;-84
2022/05/02 00:25:51;;;;;;;;;;;13.50;82.20;13.80;99471.00;;;;345554;28;91808;-84
2022/05/02 00:26:03;;;;;;;;;;;13.50;82.70;13.80;99466.00;;;;344566;28;83423;-84
2022/05/02 00:26:14;;;;;;;;;;;13.50;82.70;13.90;99476.00;;;;342336;28;89418;-84
2022/05/02 00:26:26;;;;;;;;;;;13.50;82.50;13.90;99474.00;;;;344623;28;83435;-84
2022/05/02 00:26:38;;;;;;;;;;;13.50;82.40;13.90;99478.00;;;;343127;28;89088;-84
2022/05/02 00:26:50;;;;;;;;;;;13.50;82.40;13.90;99475.00;;;;343305;28;83420;-84
2022/05/02 00:27:02;;;;;;;;;;;13.50;82.60;13.90;99464.00;;;;343016;28;89136;-84
2022/05/02 00:27:13;;;;;;;;;;;13.50;82.50;13.90;99476.00;;;;343121;28;82680;-84
2022/05/02 00:27:26;;;;;;;;;;;13.50;82.50;13.90;99471.00;;;;344567;28;87783;-84
2022/05/02 00:27:41;;;;;;;;;;;13.50;82.70;13.80;99480.00;;;;345783;28;82446;-84
2022/05/02 00:27:52;;;;;;;;;;;13.50;82.60;13.70;99479.00;;;;344409;28;89046;-83
2022/05/02 00:28:04;;;;;;;;;;;13.50;82.40;13.70;99476.00;;;;344366;28;83135;-84
2022/05/02 00:28:16;;;;;;;;;;;13.50;82.30;13.70;99471.00;;;;341655;28;88538;-83
2022/05/02 00:28:28;;;;;;;;;;;13.50;82.50;13.70;99469.00;;;;342195;28;83255;-84
2022/05/02 00:28:40;;;;;;;;;;;13.50;82.50;13.70;99471.00;;;;343812;28;89526;-84
2022/05/02 00:28:51;;;;;;;;;;;13.40;82.50;13.60;99473.00;;;;343454;28;83171;-84
2022/05/02 00:29:04;;;;;;;;;;;13.40;82.50;13.60;99471.00;;;;342935;28;90333;-84
2022/05/02 00:29:15;;;;;;;;;;;13.40;82.60;13.70;99474.00;;;;344357;28;83894;-83
2022/05/02 00:29:27;;;;;;;;;;;13.40;82.50;13.70;99469.00;;;;342730;28;90943;-83
2022/05/02 00:29:39;;;;;;;;;;;13.40;82.40;13.80;99475.00;;;;343298;28;83244;-84
2022/05/02 00:29:50;;;;;;;;;;;13.40;82.50;13.80;99469.00;;;;345447;28;91373;-82
2022/05/02 00:30:03;;;;;;;;;;;13.40;82.50;13.70;99473.00;;;;344861;28;82416;-84
2022/05/02 00:30:15;;;;;;;;;;;13.40;82.60;13.60;99468.00;;;;345853;28;89457;-84
2022/05/02 00:30:27;;;;;;;;;;;13.40;82.60;13.60;99481.00;;;;344669;28;83303;-84
2022/05/02 00:30:40;;;;;;;;;;;13.40;82.60;13.60;99472.00;;;;344562;28;88453;-84
2022/05/02 00:30:52;;;;;;;;;;;13.40;82.60;13.70;99478.00;;;;343525;28;83264;-84
2022/05/02 00:31:04;;;;;;;;;;;13.40;82.50;13.70;99470.00;;;;344441;28;89458;-84
2022/05/02 00:31:16;;;;;;;;;;;13.40;82.50;13.80;99472.00;;;;343590;28;82410;-83
2022/05/02 00:31:28;;;;;;;;;;;13.40;82.70;13.70;99475.00;;;;341550;28;90809;-84
2022/05/02 00:31:40;;;;;;;;;;;13.40;82.80;13.80;99474.00;;;;340612;28;82539;-84
2022/05/02 00:31:52;;;;;;;;;;;13.40;82.60;13.80;99475.00;;;;340398;28;89697;-84
2022/05/02 00:32:04;;;;;;;;;;;13.40;82.60;13.80;99466.00;;;;344639;28;82539;-84
2022/05/02 00:32:16;;;;;;;;;;;13.40;82.50;13.80;99474.00;;;;344408;28;88967;-84
2022/05/02 00:32:28;;;;;;;;;;;13.40;82.50;13.90;99457.00;;;;347417;28;83183;-84
2022/05/02 00:32:40;;;;;;;;;;;13.40;82.40;13.90;99470.00;;;;344565;28;88056;-83
2022/05/02 00:32:52;;;;;;;;;;;13.40;82.40;13.90;99472.00;;;;343558;28;83300;-84
2022/05/02 00:33:04;;;;;;;;;;;13.40;82.40;13.80;99469.00;;;;343068;28;88696;-84
2022/05/02 00:33:18;;;;;;;;;;;13.50;82.60;13.80;99469.00;;;;343322;28;83390;-84
2022/05/02 00:33:30;;;;;;;;;;;13.40;82.50;13.70;99469.00;;;;342790;28;92190;-84
2022/05/02 00:33:42;;;;;;;;;;;13.40;82.50;13.70;99474.00;;;;343585;28;83372;-84
2022/05/02 00:33:54;;;;;;;;;;;13.40;82.70;13.70;99466.00;;;;345698;28;91117;-84
2022/05/02 00:34:05;;;;;;;;;;;13.40;82.60;13.80;99463.00;;;;344917;28;82323;-84
2022/05/02 00:34:17;;;;;;;;;;;13.50;82.60;13.80;99466.00;;;;344145;28;88779;-83
2022/05/02 00:34:29;;;;;;;;;;;13.40;82.60;13.80;99469.00;;;;343498;28;83236;-84
2022/05/02 00:34:41;;;;;;;;;;;13.40;82.60;13.80;99462.00;;;;343087;28;88908;-84
2022/05/02 00:34:52;;;;;;;;;;;13.50;83.20;13.90;99466.00;;;;344933;28;82301;-84
2022/05/02 00:35:05;;;;;;;;;;;13.50;82.50;13.80;99465.00;;;;342864;28;90322;-84
2022/05/02 00:35:17;;;;;;;;;;;13.50;82.50;13.80;99469.00;;;;341341;28;83406;-84
2022/05/02 00:35:28;;;;;;;;;;;13.50;82.40;13.70;99467.00;;;;341783;28;89678;-83
2022/05/02 00:35:40;;;;;;;;;;;13.40;82.30;13.80;99472.00;;;;342670;28;83638;-84
2022/05/02 00:35:52;;;;;;;;;;;13.50;82.20;13.80;99464.00;;;;343116;28;89375;-84
2022/05/02 00:36:04;;;;;;;;;;;13.50;82.40;13.90;99469.00;;;;343356;28;83426;-84
2022/05/02 00:36:16;;;;;;;;;;;13.50;82.30;13.90;99469.00;;;;343365;28;88793;-84
2022/05/02 00:36:28;;;;;;;;;;;13.50;82.30;13.80;99463.00;;;;343516;28;83399;-84
2022/05/02 00:36:40;;;;;;;;;;;13.50;82.40;13.90;99463.00;;;;344140;28;88006;-84
2022/05/02 00:36:51;;;;;;;;;;;13.50;82.60;13.90;99464.00;;;;344762;28;83326;-84
2022/05/02 00:37:04;;;;;;;;;;;13.50;82.50;13.90;99472.00;;;;345606;28;92133;-84
2022/05/02 00:37:17;;;;;;;;;;;13.50;82.40;13.90;99467.00;;;;344712;28;82487;-84
2022/05/02 00:37:29;;;;;;;;;;;13.50;82.20;13.90;99463.00;;;;340385;28;88692;-83
2022/05/02 00:37:41;;;;;;;;;;;13.50;82.30;13.80;99466.00;;;;344563;28;83281;-84
2022/05/02 00:37:53;;;;;;;;;;;13.50;82.50;13.90;99466.00;;;;345670;28;92095;-84
2022/05/02 00:38:05;;;;;;;;;;;13.50;82.30;13.90;99459.00;;;;343485;28;83834;-83
2022/05/02 00:38:17;;;;;;;;;;;13.50;82.20;13.80;99460.00;;;;344478;28;88161;-83
2022/05/02 00:38:30;;;;;;;;;;;13.50;82.40;13.80;99466.00;;;;343614;28;82290;-83
2022/05/02 00:38:41;;;;;;;;;;;13.50;82.40;13.80;99463.00;;;;344328;28;89785;-84
2022/05/02 00:38:53;;;;;;;;;;;13.50;82.50;13.70;99468.00;;;;344809;28;83486;-84
2022/05/02 00:39:05;;;;;;;;;;;13.50;82.50;13.70;99462.00;;;;344346;28;91592;-84
2022/05/02 00:39:17;;;;;;;;;;;13.50;82.60;13.70;99463.00;;;;343473;28;82380;-84
2022/05/02 00:39:29;;;;;;;;;;;13.50;82.50;13.60;99461.00;;;;344455;28;88281;-84
2022/05/02 00:39:41;;;;;;;;;;;13.50;82.60;13.70;99464.00;;;;345376;28;82457;-83
2022/05/02 00:39:52;;;;;;;;;;;13.40;82.50;13.70;99456.00;;;;344561;28;88402;-84
2022/05/02 00:40:09;;;;;;;;;;;13.40;82.50;13.60;99460.00;;;;342118;28;83430;-83
2022/05/02 00:40:21;;;;;;;;;;;13.40;82.50;13.70;99459.00;;;;343507;28;89452;-85
2022/05/02 00:40:33;;;;;;;;;;;13.40;82.70;13.60;99461.00;;;;343519;28;83239;-84
2022/05/02 00:40:44;;;;;;;;;;;13.40;82.80;13.60;99455.00;;;;341771;28;87796;-84
2022/05/02 00:40:56;;;;;;;;;;;13.40;82.80;13.60;99467.00;;;;343263;28;83359;-84
2022/05/02 00:41:08;;;;;;;;;;;13.40;82.80;13.60;99469.00;;;;344131;28;92043;-84
2022/05/02 00:41:20;;;;;;;;;;;13.40;82.80;13.60;99463.00;;;;343077;28;83678;-83
2022/05/02 00:41:32;;;;;;;;;;;13.40;82.80;13.60;99466.00;;;;342250;28;89094;-83
2022/05/02 00:41:43;;;;;;;;;;;13.40;83.00;13.60;99461.00;;;;345348;28;82587;-83
2022/05/02 00:41:55;;;;;;;;;;;13.40;83.00;13.60;99454.00;;;;344440;28;88679;-84
2022/05/02 00:42:07;;;;;;;;;;;13.40;82.90;13.60;99459.00;;;;341810;28;83541;-83
2022/05/02 00:42:20;;;;;;;;;;;13.30;82.90;13.60;99460.00;;;;342717;28;89564;-84
2022/05/02 00:42:31;;;;;;;;;;;13.30;82.90;13.60;99457.00;;;;341591;28;82577;-83
2022/05/02 00:42:44;;;;;;;;;;;13.30;82.90;13.70;99454.00;;;;342908;28;87842;-84
2022/05/02 00:42:56;;;;;;;;;;;13.30;82.70;13.60;99462.00;;;;343191;28;83400;-84
2022/05/02 00:43:07;;;;;;;;;;;13.40;82.80;13.70;99459.00;;;;341550;28;88900;-84
2022/05/02 00:43:19;;;;;;;;;;;13.30;82.70;13.60;99463.00;;;;341960;28;83359;-84
2022/05/02 00:43:31;;;;;;;;;;;13.30;82.90;13.60;99456.00;;;;344122;28;88579;-84
2022/05/02 00:43:42;;;;;;;;;;;13.30;82.90;13.70;99463.00;;;;344875;28;83330;-84
2022/05/02 00:43:54;;;;;;;;;;;13.30;82.80;13.70;99466.00;;;;344350;28;89339;-84
2022/05/02 00:44:06;;;;;;;;;;;13.30;82.60;13.70;99459.00;;;;343448;28;82438;-84
2022/05/02 00:44:18;;;;;;;;;;;13.30;82.80;13.80;99461.00;;;;343923;28;91583;-84
2022/05/02 00:44:30;;;;;;;;;;;13.30;82.80;13.80;99465.00;;;;344987;28;83753;-84
2022/05/02 00:44:43;;;;;;;;;;;13.30;82.70;13.70;99465.00;;;;345628;28;88799;-84
2022/05/02 00:44:55;;;;;;;;;;;13.40;82.60;13.80;99465.00;;;;343429;28;83333;-84
2022/05/02 00:45:08;;;;;;;;;;;13.40;82.70;13.70;99466.00;;;;344090;28;91202;-84
2022/05/02 00:45:20;;;;;;;;;;;13.40;82.90;13.70;99458.00;;;;346170;28;83318;-84
2022/05/02 00:45:35;;;;;;;;;;;13.40;83.00;13.80;99462.00;;;;345346;28;89733;-84
2022/05/02 00:45:47;;;;;;;;;;;13.40;83.00;13.80;99461.00;;;;344992;28;82832;-84
2022/05/02 00:45:59;;;;;;;;;;;13.40;82.90;13.70;99456.00;;;;343094;28;89112;-84
2022/05/02 00:46:22;;;;;;;;;;;13.40;82.80;13.70;99469.00;;;;345968;28;84169;-83
2022/05/02 00:46:34;;;;;;;;;;;13.40;82.80;13.70;99468.00;;;;344140;28;92136;-84
2022/05/02 00:46:46;;;;;;;;;;;13.40;82.70;13.70;99465.00;;;;344518;28;82630;-84
2022/05/02 00:46:58;;;;;;;;;;;13.40;82.70;13.80;99462.00;;;;343067;28;89396;-84
2022/05/02 00:47:10;;;;;;;;;;;13.40;82.90;13.80;99460.00;;;;344538;28;83469;-85
2022/05/02 00:47:22;;;;;;;;;;;13.40;83.10;13.70;99465.00;;;;345654;28;90576;-84
2022/05/02 00:47:34;;;;;;;;;;;13.40;83.00;13.70;99463.00;;;;342593;28;85541;-84
2022/05/02 00:47:54;;;;;;;;;;;13.40;82.90;13.70;99461.00;;;;343075;28;89173;-84
2022/05/02 00:48:07;;;;;;;;;;;13.40;82.90;13.70;99459.00;;;;346282;28;83104;-84
2022/05/02 00:48:20;;;;;;;;;;;13.40;83.00;13.70;99464.00;;;;341475;28;91727;-84
2022/05/02 00:48:31;;;;;;;;;;;13.40;83.30;13.60;99455.00;;;;343979;28;82321;-84
2022/05/02 00:48:43;;;;;;;;;;;13.30;83.20;13.70;99463.00;;;;342727;28;88010;-84
2022/05/02 00:48:55;;;;;;;;;;;13.40;83.10;13.80;99459.00;;;;343231;28;83570;-84
2022/05/02 00:49:07;;;;;;;;;;;13.40;83.00;13.80;99459.00;;;;343058;28;88745;-84
2022/05/02 00:49:19;;;;;;;;;;;13.40;82.90;13.80;99464.00;;;;344633;28;83546;-84
2022/05/02 00:49:31;;;;;;;;;;;13.40;82.80;13.80;99449.00;;;;344223;28;89224;-84
2022/05/02 00:49:43;;;;;;;;;;;13.40;82.80;13.80;99453.00;;;;344957;28;83280;-84
2022/05/02 00:49:55;;;;;;;;;;;13.40;82.70;13.70;99456.00;;;;341696;28;89167;-84
2022/05/02 00:50:08;;;;;;;;;;;13.40;82.80;13.70;99457.00;;;;343656;28;82459;-84
2022/05/02 00:50:33;;;;;;;;;;;13.40;82.80;13.70;99449.00;;;;340613;28;89741;-84
2022/05/02 00:50:47;;;;;;;;;;;13.40;83.00;13.80;99463.00;;;;344332;28;83423;-83
2022/05/02 00:50:59;;;;;;;;;;;13.40;82.70;13.80;99455.00;;;;341724;28;88187;-84
2022/05/02 00:51:10;;;;;;;;;;;13.40;82.80;13.80;99456.00;;;;343538;28;83567;-84
2022/05/02 00:51:22;;;;;;;;;;;13.40;82.70;13.80;99457.00;;;;344369;28;88341;-85
2022/05/02 00:51:34;;;;;;;;;;;13.40;82.70;13.70;99460.00;;;;344570;28;83488;-84
2022/05/02 00:51:46;;;;;;;;;;;13.40;82.80;13.70;99461.00;;;;341717;28;88964;-84
2022/05/02 00:51:58;;;;;;;;;;;13.40;82.90;13.60;99463.00;;;;344655;28;83286;-83
2022/05/02 00:52:09;;;;;;;;;;;13.40;82.80;13.70;99461.00;;;;345633;28;91627;-83
2022/05/02 00:52:21;;;;;;;;;;;13.40;82.80;13.70;99453.00;;;;344693;28;83425;-84
2022/05/02 00:52:33;;;;;;;;;;;13.40;82.90;13.70;99459.00;;;;343048;28;91972;-84
2022/05/02 00:52:45;;;;;;;;;;;13.40;82.90;13.70;99455.00;;;;344149;28;82351;-84
2022/05/02 00:52:56;;;;;;;;;;;13.40;82.90;13.60;99454.00;;;;345699;28;90058;-84
2022/05/02 00:53:10;;;;;;;;;;;13.40;82.90;13.60;99464.00;;;;345900;28;83220;-84
2022/05/02 00:53:22;;;;;;;;;;;13.40;82.90;13.70;99464.00;;;;343992;28;92137;-84
2022/05/02 00:53:34;;;;;;;;;;;13.40;82.70;13.70;99455.00;;;;346244;28;83335;-84
2022/05/02 00:53:51;;;;;;;;;;;13.40;82.60;13.70;99456.00;;;;344229;28;90517;-84
2022/05/02 00:54:02;;;;;;;;;;;13.40;82.90;13.80;99458.00;;;;342191;28;83297;-84
2022/05/02 00:54:14;;;;;;;;;;;13.40;82.80;13.80;99454.00;;;;344153;28;90114;-84
2022/05/02 00:54:26;;;;;;;;;;;13.40;82.90;13.80;99451.00;;;;343544;28;83326;-84
2022/05/02 00:54:38;;;;;;;;;;;13.40;82.90;13.70;99457.00;;;;344852;28;88174;-84
2022/05/02 00:54:50;;;;;;;;;;;13.40;82.90;13.70;99458.00;;;;344837;28;82272;-84
2022/05/02 00:55:03;;;;;;;;;;;13.40;82.70;13.80;99459.00;;;;344110;28;91650;-84
2022/05/02 00:55:15;;;;;;;;;;;13.40;82.70;13.70;99450.00;;;;343233;28;82657;-84
2022/05/02 00:55:27;;;;;;;;;;;13.40;83.30;13.70;99458.00;;;;344241;28;90175;-84
2022/05/02 00:55:39;;;;;;;;;;;13.40;82.70;13.70;99446.00;;;;344878;28;83441;-84
2022/05/02 00:55:51;;;;;;;;;;;13.40;82.70;13.80;99457.00;;;;342763;28;90260;-84
2022/05/02 00:56:03;;;;;;;;;;;13.40;82.60;13.70;99466.00;;;;346391;28;82283;-84
2022/05/02 00:56:15;;;;;;;;;;;13.40;83.30;13.70;99460.00;;;;343941;28;89030;-84
2022/05/02 00:56:27;;;;;;;;;;;13.40;82.80;13.70;99455.00;;;;343396;28;83479;-84
2022/05/02 00:56:39;;;;;;;;;;;13.40;82.80;13.80;99457.00;;;;342051;28;88635;-84
2022/05/02 00:56:51;;;;;;;;;;;13.40;82.70;13.80;99457.00;;;;344551;28;83332;-83
2022/05/02 00:57:09;;;;;;;;;;;13.40;82.70;13.80;99457.00;;;;345700;28;88517;-84
2022/05/02 00:57:20;;;;;;;;;;;13.40;82.80;13.80;99454.00;;;;342093;28;83314;-84
2022/05/02 00:57:33;;;;;;;;;;;13.40;82.90;13.80;99455.00;;;;343005;28;89717;-84
2022/05/02 00:57:44;;;;;;;;;;;13.40;82.90;13.70;99455.00;;;;344885;28;82393;-84
2022/05/02 00:58:00;;;;;;;;;;;13.40;82.90;13.70;99445.00;;;;343087;28;89781;-84
2022/05/02 00:58:13;;;;;;;;;;;13.40;82.80;13.60;99455.00;;;;343453;28;83338;-84
2022/05/02 00:58:25;;;;;;;;;;;13.40;82.90;13.50;99454.00;;;;343024;28;88107;-84
2022/05/02 00:58:37;;;;;;;;;;;13.30;82.90;13.60;99449.00;;;;344753;28;83433;-84
2022/05/02 00:58:50;;;;;;;;;;;13.30;82.80;13.50;99452.00;;;;342987;28;89672;-84
2022/05/02 00:59:01;;;;;;;;;;;13.30;83.00;13.50;99453.00;;;;344910;28;83345;-84
2022/05/02 00:59:14;;;;;;;;;;;13.30;83.00;13.60;99454.00;;;;345612;28;91490;-84
2022/05/02 00:59:26;;;;;;;;;;;13.30;82.90;13.50;99457.00;;;;343270;28;83574;-84
2022/05/02 00:59:38;;;;;;;;;;;13.30;83.00;13.50;99446.00;;;;341294;28;89660;-84
2022/05/02 00:59:50;;;;;;;;;;;13.30;83.00;13.50;99456.00;;;;344548;28;83585;-83
2022/05/02 01:00:03;;;;;;;;;;;13.30;83.00;13.40;99450.00;;;;345783;28;89719;-84
2022/05/02 01:00:15;;;;;;;;;;;13.20;83.20;13.40;99451.00;;;;343342;28;82588;-84
2022/05/02 01:00:28;;;;;;;;;;;13.20;83.20;13.40;99451.00;;;;341676;28;91993;-84
2022/05/02 01:00:39;;;;;;;;;;;13.20;83.20;13.40;99449.00;;;;343552;28;82413;-84
2022/05/02 01:00:51;;;;;;;;;;;13.20;83.40;13.40;99452.00;;;;341979;28;87622;-85